Time;durP1;ratioP1;P1;durP2;ratioP2;P2;SDS_P1;SDS_P2;PMS_P1;PMS_P2;Temp;Humidity;BMP_temperature;BMP_pressure;BME280_temperature;BME280_humidity;BME280_pressure;Samples;Min_cycle;Max_cycle;Signal;HPM_P1;HPM_P2
2023/04/25 00:00:00;;;;;;;19.30;13.53;;;;;;;7.42;100.00;100282.03;5071829;28;20469;-49
2023/04/25 00:02:28;;;;;;;21.80;14.40;;;;;;;7.47;100.00;100279.63;5072187;28;20470;-46
2023/04/25 00:04:57;;;;;;;19.83;15.10;;;;;;;7.52;100.00;100272.78;5072252;28;20426;-45
2023/04/25 00:07:26;;;;;;;25.97;14.73;;;;;;;7.37;100.00;100277.31;5071941;28;20458;-45
2023/04/25 00:09:54;;;;;;;16.80;14.67;;;;;;;7.39;100.00;100290.38;5067979;28;20541;-47
2023/04/25 00:12:22;;;;;;;27.83;16.50;;;;;;;7.33;100.00;100283.16;5071847;28;20951;-48
2023/04/25 00:14:51;;;;;;;21.80;16.60;;;;;;;7.21;100.00;100278.34;5072175;28;20445;-47
2023/04/25 00:17:20;;;;;;;28.33;15.60;;;;;;;7.12;100.00;100287.41;5071876;28;20458;-44
2023/04/25 00:19:48;;;;;;;16.80;14.30;;;;;;;7.02;100.00;100291.34;5071406;28;20462;-47
2023/04/25 00:22:15;;;;;;;21.43;15.40;;;;;;;6.95;100.00;100293.94;5071558;28;20474;-46
2023/04/25 00:24:43;;;;;;;28.33;14.83;;;;;;;6.90;100.00;100285.69;5072149;28;20804;-45
2023/04/25 00:27:11;;;;;;;20.43;14.43;;;;;;;6.79;100.00;100299.41;5071915;28;20461;-46
2023/04/25 00:29:39;;;;;;;23.23;15.73;;;;;;;6.72;100.00;100293.19;5071414;28;20462;-45
2023/04/25 00:32:06;;;;;;;19.87;14.90;;;;;;;6.71;100.00;100298.69;5071789;28;20438;-44
2023/04/25 00:34:36;;;;;;;23.07;14.50;;;;;;;6.66;100.00;100299.19;5071615;28;20431;-45
2023/04/25 00:37:03;;;;;;;22.07;15.50;;;;;;;6.53;100.00;100294.56;5071528;28;20457;-50
2023/04/25 00:39:31;;;;;;;22.17;15.33;;;;;;;6.53;100.00;100293.72;5071300;28;20812;-46
2023/04/25 00:41:59;;;;;;;21.70;14.70;;;;;;;6.48;100.00;100302.19;5071567;28;20482;-45
2023/04/25 00:44:29;;;;;;;18.93;15.47;;;;;;;6.49;100.00;100298.56;5071763;28;20437;-45
2023/04/25 00:46:57;;;;;;;21.77;15.50;;;;;;;6.42;100.00;100308.22;5071565;28;21087;-45
2023/04/25 00:49:25;;;;;;;19.80;15.43;;;;;;;6.40;100.00;100302.28;5065538;28;20491;-51
2023/04/25 00:51:54;;;;;;;16.53;14.90;;;;;;;6.37;100.00;100304.47;5071397;28;20430;-48
2023/04/25 00:54:22;;;;;;;17.10;14.83;;;;;;;6.35;100.00;100312.63;5071626;28;20431;-45
2023/04/25 00:56:49;;;;;;;22.70;15.40;;;;;;;6.29;100.00;100315.16;5071577;28;20457;-48
2023/04/25 00:59:19;;;;;;;17.03;14.73;;;;;;;6.32;100.00;100312.97;5071160;28;20458;-46
2023/04/25 01:01:47;;;;;;;29.03;15.13;;;;;;;6.36;100.00;100316.88;5071279;28;20473;-47
2023/04/25 01:04:15;;;;;;;15.00;13.50;;;;;;;6.45;100.00;100309.72;5071622;28;20430;-46
2023/04/25 01:06:43;;;;;;;17.57;14.17;;;;;;;6.44;100.00;100305.41;5071844;28;20450;-50
2023/04/25 01:09:13;;;;;;;19.50;13.73;;;;;;;6.36;100.00;100311.59;5071175;28;20777;-48
2023/04/25 01:11:41;;;;;;;16.07;13.57;;;;;;;6.30;100.00;100312.31;5071533;28;20465;-48
2023/04/25 01:14:08;;;;;;;28.17;15.20;;;;;;;6.29;100.00;100309.84;5071339;28;20422;-49
2023/04/25 01:16:36;;;;;;;17.87;14.83;;;;;;;6.13;100.00;100309.00;5071129;28;20450;-49
2023/04/25 01:19:10;;;;;;;15.97;14.63;;;;;;;6.10;100.00;100309.34;5070752;28;20945;-44
2023/04/25 01:21:40;;;;;;;21.67;15.13;;;;;;;6.08;100.00;100300.78;5071321;28;21119;-46
2023/04/25 01:24:08;;;;;;;21.13;15.10;;;;;;;6.06;100.00;100305.41;5071347;28;20433;-47
2023/04/25 01:26:37;;;;;;;27.83;16.00;;;;;;;6.07;100.00;100311.53;5071167;28;20565;-48
2023/04/25 01:29:05;;;;;;;17.27;15.40;;;;;;;6.11;100.00;100318.13;5071129;28;20437;-46
2023/04/25 01:31:33;;;;;;;18.10;15.63;;;;;;;6.06;100.00;100315.19;5071290;28;21017;-45
2023/04/25 01:34:01;;;;;;;17.17;15.40;;;;;;;6.00;100.00;100329.94;5071284;28;20437;-46
2023/04/25 01:36:30;;;;;;;17.90;14.80;;;;;;;5.92;100.00;100313.28;5071015;28;20984;-49
2023/04/25 01:38:59;;;;;;;23.47;16.23;;;;;;;5.98;100.00;100316.06;5071276;28;20431;-48
2023/04/25 01:41:27;;;;;;;25.63;14.20;;;;;;;6.00;100.00;100319.34;5070273;28;20466;-45
2023/04/25 01:43:55;;;;;;;17.13;15.40;;;;;;;6.08;100.00;100316.66;5071013;28;20470;-46
2023/04/25 01:46:24;;;;;;;22.23;14.53;;;;;;;6.16;100.00;100322.88;5071046;28;20450;-44
2023/04/25 01:48:51;;;;;;;19.47;15.03;;;;;;;6.21;100.00;100325.81;5071108;28;20481;-47
2023/04/25 01:51:19;;;;;;;24.03;14.63;;;;;;;6.24;100.00;100333.41;5068113;28;20469;-45
2023/04/25 01:53:47;;;;;;;15.53;13.73;;;;;;;6.24;100.00;100326.28;5070888;28;20430;-51
2023/04/25 01:56:18;;;;;;;20.10;14.47;;;;;;;6.27;100.00;100325.09;5070756;28;20499;-46
2023/04/25 01:58:46;;;;;;;18.40;14.03;;;;;;;6.31;100.00;100327.19;5071317;28;20430;-50
2023/04/25 02:01:14;;;;;;;20.10;15.70;;;;;;;6.35;100.00;100325.84;5070363;28;20549;-46
2023/04/25 02:03:41;;;;;;;18.13;14.70;;;;;;;6.33;100.00;100329.69;5073786;28;20539;-50
2023/04/25 02:06:09;;;;;;;21.10;13.70;;;;;;;6.34;100.00;100323.38;5074498;28;20468;-44
2023/04/25 02:08:37;;;;;;;22.67;15.17;;;;;;;6.40;100.00;100341.19;5074571;28;20839;-45
2023/04/25 02:11:05;;;;;;;23.90;14.20;;;;;;;6.39;100.00;100342.22;5073941;28;20458;-46
2023/04/25 02:13:34;;;;;;;28.23;14.87;;;;;;;6.42;100.00;100337.34;5074308;28;20430;-50
2023/04/25 02:16:01;;;;;;;22.60;14.40;;;;;;;6.41;100.00;100348.97;5074230;28;20426;-46
2023/04/25 02:18:29;;;;;;;17.60;14.57;;;;;;;6.41;100.00;100338.38;5074440;28;20867;-50
2023/04/25 02:20:57;;;;;;;25.23;14.47;;;;;;;6.42;100.00;100353.25;5069592;28;20470;-48
2023/04/25 02:23:25;;;;;;;25.13;15.50;;;;;;;6.37;100.00;100349.50;5074210;28;20474;-45
2023/04/25 02:25:55;;;;;;;21.73;15.77;;;;;;;6.40;100.00;100347.31;5074527;28;20468;-45
2023/04/25 02:28:24;;;;;;;21.47;14.50;;;;;;;6.29;100.00;100350.41;5074522;28;20499;-47
2023/04/25 02:30:53;;;;;;;18.37;14.50;;;;;;;6.25;100.00;100351.75;5073663;28;20737;-46
2023/04/25 02:33:20;;;;;;;21.10;15.37;;;;;;;6.29;100.00;100349.56;5073777;28;20422;-46
2023/04/25 02:35:48;;;;;;;15.93;14.27;;;;;;;6.30;100.00;100351.22;5074166;28;20438;-45
2023/04/25 02:38:16;;;;;;;16.30;14.00;;;;;;;6.23;100.00;100335.22;5074234;28;20450;-46
2023/04/25 02:40:44;;;;;;;17.40;13.50;;;;;;;6.24;100.00;100344.00;5073308;28;20466;-49
2023/04/25 02:43:11;;;;;;;18.00;14.07;;;;;;;6.18;100.00;100342.06;5073717;28;20467;-45
2023/04/25 02:45:39;;;;;;;26.90;14.90;;;;;;;6.13;100.00;100329.34;5073614;28;20442;-47
2023/04/25 02:48:08;;;;;;;23.20;14.87;;;;;;;6.08;100.00;100343.13;5073987;28;20455;-46
2023/04/25 02:50:36;;;;;;;15.77;14.27;;;;;;;6.07;100.00;100344.13;5073119;28;20497;-46
2023/04/25 02:53:04;;;;;;;29.07;15.10;;;;;;;6.03;100.00;100339.38;5073527;28;20519;-48
2023/04/25 02:55:31;;;;;;;27.67;15.07;;;;;;;6.00;100.00;100343.16;5073719;28;20446;-49
2023/04/25 02:57:59;;;;;;;25.57;14.40;;;;;;;5.91;100.00;100351.34;5073527;28;20450;-46
2023/04/25 03:00:27;;;;;;;16.53;14.87;;;;;;;6.02;100.00;100349.13;5073013;28;20462;-46
2023/04/25 03:02:55;;;;;;;19.43;14.87;;;;;;;6.01;100.00;100346.63;5073393;28;20474;-48
2023/04/25 03:05:24;;;;;;;21.90;14.90;;;;;;;6.07;100.00;100354.69;5073524;28;20434;-48
2023/04/25 03:07:52;;;;;;;19.50;14.07;;;;;;;6.10;100.00;100356.16;5073429;28;20458;-45
2023/04/25 03:10:20;;;;;;;15.63;14.00;;;;;;;6.14;100.00;100349.53;5073069;28;20549;-48
2023/04/25 03:12:47;;;;;;;27.73;14.63;;;;;;;6.21;100.00;100355.78;5072940;28;20434;-47
2023/04/25 03:15:16;;;;;;;20.67;15.43;;;;;;;6.21;100.00;100361.06;5072992;28;20430;-44
2023/04/25 03:17:44;;;;;;;18.73;15.83;;;;;;;6.25;100.00;100350.91;5073185;28;20508;-45
2023/04/25 03:20:12;;;;;;;18.90;14.60;;;;;;;6.29;100.00;100358.34;5071521;28;20497;-48
2023/04/25 03:22:41;;;;;;;16.10;13.63;;;;;;;6.28;100.00;100356.69;5072933;28;20441;-49
2023/04/25 03:25:09;;;;;;;20.37;14.00;;;;;;;6.22;100.00;100351.28;5072995;28;20430;-49
2023/04/25 03:27:37;;;;;;;15.57;13.97;;;;;;;6.27;100.00;100356.88;5072829;28;20499;-46
2023/04/25 03:30:06;;;;;;;13.73;12.40;;;;;;;6.20;100.00;100356.75;5072437;28;20592;-46
2023/04/25 03:32:34;;;;;;;21.67;13.60;;;;;;;6.24;100.00;100358.06;5072846;28;20430;-46
2023/04/25 03:35:01;;;;;;;18.67;14.40;;;;;;;6.16;100.00;100350.16;5072823;28;20431;-49
2023/04/25 03:37:29;;;;;;;18.13;13.33;;;;;;;6.19;100.00;100352.47;5072810;28;20450;-48
2023/04/25 03:39:58;;;;;;;24.80;13.10;;;;;;;6.22;100.00;100351.28;5072421;28;20470;-45
2023/04/25 03:42:26;;;;;;;17.07;12.70;;;;;;;6.22;100.00;100351.28;5072391;28;20927;-49
2023/04/25 03:44:53;;;;;;;20.73;12.80;;;;;;;6.27;100.00;100362.19;5072755;28;20890;-48
2023/04/25 03:47:21;;;;;;;15.17;12.70;;;;;;;6.24;100.00;100362.53;5072386;28;20836;-51
2023/04/25 03:49:51;;;;;;;28.83;13.30;;;;;;;6.25;100.00;100358.88;5071880;28;20465;-45
2023/04/25 03:52:19;;;;;;;19.73;12.80;;;;;;;6.22;100.00;100362.69;5072274;28;20850;-47
2023/04/25 03:54:46;;;;;;;14.67;12.80;;;;;;;6.20;100.00;100362.06;5072221;28;20427;-46
2023/04/25 03:57:15;;;;;;;14.37;12.73;;;;;;;6.18;100.00;100357.94;5072506;28;20447;-48
2023/04/25 03:59:43;;;;;;;15.00;12.07;;;;;;;6.16;100.00;100367.88;5072136;28;20455;-46
2023/04/25 04:02:11;;;;;;;16.40;13.60;;;;;;;6.12;100.00;100365.56;5072386;28;20442;-46
2023/04/25 04:04:39;;;;;;;16.07;13.60;;;;;;;6.17;100.00;100378.31;5072098;28;20470;-47
2023/04/25 04:07:07;;;;;;;19.50;14.17;;;;;;;6.16;100.00;100367.88;5072102;28;20454;-46
2023/04/25 04:09:35;;;;;;;20.83;14.00;;;;;;;6.19;100.00;100378.09;5072016;28;20465;-46
2023/04/25 04:12:02;;;;;;;14.87;12.70;;;;;;;6.25;100.00;100390.63;5072055;28;20430;-45
2023/04/25 04:14:31;;;;;;;17.10;12.43;;;;;;;6.23;100.00;100385.53;5072298;28;20427;-48
2023/04/25 04:16:59;;;;;;;12.83;11.50;;;;;;;6.14;100.00;100386.59;5072248;28;20997;-45
2023/04/25 04:19:27;;;;;;;12.97;11.57;;;;;;;6.20;100.00;100403.59;5069760;28;20458;-47
2023/04/25 04:21:55;;;;;;;12.90;11.37;;;;;;;6.18;100.00;100401.13;5071556;28;20436;-46
2023/04/25 04:24:22;;;;;;;19.87;14.40;;;;;;;6.22;100.00;100404.22;5071723;28;20470;-49
2023/04/25 04:26:50;;;;;;;26.53;13.27;;;;;;;6.26;100.00;100398.41;5071872;28;20462;-47
2023/04/25 04:29:20;;;;;;;15.20;11.87;;;;;;;6.35;100.00;100396.53;5071273;28;20446;-46
2023/04/25 04:31:52;;;;;;;14.10;12.60;;;;;;;6.37;100.00;100405.09;5072060;28;20477;-46
2023/04/25 04:34:20;;;;;;;22.37;13.40;;;;;;;6.42;100.00;100408.06;5071750;28;20959;-43
2023/04/25 04:36:47;;;;;;;12.67;11.60;;;;;;;6.46;100.00;100396.09;5072265;28;20451;-46
2023/04/25 04:39:15;;;;;;;19.53;12.80;;;;;;;6.46;100.00;100407.53;5071480;28;20449;-44
2023/04/25 04:41:43;;;;;;;17.97;13.37;;;;;;;6.49;100.00;100409.81;5071713;28;20460;-46
2023/04/25 04:44:10;;;;;;;16.87;13.00;;;;;;;6.46;100.00;100414.63;5071790;28;20474;-45
2023/04/25 04:46:41;;;;;;;17.37;13.57;;;;;;;6.43;100.00;100415.00;5071698;28;20458;-45
2023/04/25 04:49:12;;;;;;;14.03;12.93;;;;;;;6.44;100.00;100422.78;5070037;28;20421;-45
2023/04/25 04:51:40;;;;;;;14.57;13.07;;;;;;;6.48;100.00;100421.41;5071414;28;20434;-45
2023/04/25 04:54:07;;;;;;;13.57;12.20;;;;;;;6.45;100.00;100424.41;5071690;28;20454;-46
2023/04/25 04:56:35;;;;;;;13.10;11.93;;;;;;;6.48;100.00;100428.56;5071414;28;20446;-44
2023/04/25 04:59:03;;;;;;;17.63;12.37;;;;;;;6.56;100.00;100428.47;5071502;28;20920;-46
2023/04/25 05:01:31;;;;;;;12.43;11.23;;;;;;;6.53;100.00;100427.00;5071069;28;20448;-47
2023/04/25 05:04:00;;;;;;;19.57;13.03;;;;;;;6.49;100.00;100414.28;5071404;28;20871;-43
2023/04/25 05:06:31;;;;;;;16.10;12.63;;;;;;;6.37;100.00;100423.66;5071460;28;20975;-44
2023/04/25 05:08:59;;;;;;;12.30;10.53;;;;;;;6.39;100.00;100416.38;5071402;28;20431;-51
2023/04/25 05:11:27;;;;;;;16.80;11.00;;;;;;;6.38;100.00;100418.19;5071005;28;20470;-43
2023/04/25 05:13:55;;;;;;;18.40;10.70;;;;;;;6.42;100.00;100426.63;5071062;28;20864;-51
2023/04/25 05:16:22;;;;;;;15.67;10.63;;;;;;;6.33;100.00;100406.50;5071548;28;20434;-46
2023/04/25 05:18:50;;;;;;;14.10;10.13;;;;;;;6.39;100.00;100434.91;5071309;28;20496;-46
2023/04/25 05:21:18;;;;;;;19.93;11.73;;;;;;;6.49;100.00;100432.84;5069467;28;21070;-45
2023/04/25 05:23:47;;;;;;;24.17;10.67;;;;;;;6.47;100.00;100435.66;5071355;28;20434;-48
2023/04/25 05:26:15;;;;;;;19.53;10.53;;;;;;;6.58;100.00;100437.06;5071258;28;20438;-51
2023/04/25 05:28:43;;;;;;;11.87;9.77;;;;;;;6.44;100.00;100443.97;5071689;28;20435;-47
2023/04/25 05:31:11;;;;;;;14.90;11.10;;;;;;;6.55;100.00;100440.06;5070746;28;20454;-52
2023/04/25 05:33:39;;;;;;;12.40;11.17;;;;;;;6.61;100.00;100436.72;5071109;28;20418;-49
2023/04/25 05:36:08;;;;;;;14.83;10.60;;;;;;;6.65;100.00;100453.91;5071381;28;20435;-52
2023/04/25 05:38:36;;;;;;;14.87;10.27;;;;;;;6.70;100.00;100448.88;5074543;28;20928;-47
2023/04/25 05:41:05;;;;;;;11.90;10.63;;;;;;;6.63;100.00;100451.41;5070454;28;20462;-48
2023/04/25 05:43:32;;;;;;;11.80;10.53;;;;;;;6.75;100.00;100454.47;5074692;28;20434;-46
2023/04/25 05:46:00;;;;;;;12.40;9.60;;;;;;;6.78;100.00;100456.75;5074668;28;21057;-46
2023/04/25 05:48:28;;;;;;;14.10;10.87;;;;;;;6.80;100.00;100456.59;5074970;28;20857;-50
2023/04/25 05:50:55;;;;;;;14.20;11.20;;;;;;;6.83;100.00;100461.53;5070702;28;20515;-49
2023/04/25 05:53:23;;;;;;;14.27;10.40;;;;;;;6.88;100.00;100452.03;5074489;28;20846;-46
2023/04/25 05:55:51;;;;;;;16.00;10.43;;;;;;;6.93;100.00;100462.13;5074932;28;20430;-45
2023/04/25 05:58:20;;;;;;;19.83;10.40;;;;;;;6.93;100.00;100457.63;5074810;28;20451;-45
2023/04/25 06:00:48;;;;;;;11.30;9.70;;;;;;;7.00;100.00;100458.56;5069565;28;20521;-44
2023/04/25 06:03:15;;;;;;;11.37;10.23;;;;;;;7.09;100.00;100469.91;5074556;28;20441;-48
2023/04/25 06:05:47;;;;;;;11.57;10.43;;;;;;;7.04;100.00;100477.59;5074471;28;20506;-48
2023/04/25 06:08:15;;;;;;;13.10;10.77;;;;;;;7.11;100.00;100468.72;5074358;28;20460;-46
2023/04/25 06:10:42;;;;;;;11.43;10.20;;;;;;;7.08;100.00;100479.69;5074659;28;20730;-47
2023/04/25 06:13:10;;;;;;;10.50;9.50;;;;;;;6.92;100.00;100469.25;5074382;28;20462;-52
2023/04/25 06:15:39;;;;;;;12.53;9.80;;;;;;;6.94;100.00;100475.19;5074386;28;20806;-49
2023/04/25 06:18:07;;;;;;;21.57;10.10;;;;;;;6.90;100.00;100481.03;5074131;28;20455;-47
2023/04/25 06:20:35;;;;;;;18.77;10.40;;;;;;;6.69;100.00;100495.75;5074248;28;20435;-48
2023/04/25 06:23:03;;;;;;;13.23;10.27;;;;;;;6.51;100.00;100502.38;5073762;28;20839;-48
2023/04/25 06:25:30;;;;;;;14.07;10.50;;;;;;;6.30;100.00;100515.41;5074280;28;20550;-47
2023/04/25 06:27:58;;;;;;;14.13;10.50;;;;;;;6.40;100.00;100508.88;5074131;28;20467;-48
2023/04/25 06:30:26;;;;;;;15.73;11.23;;;;;;;6.68;100.00;100510.03;5074132;28;20430;-45
2023/04/25 06:32:56;;;;;;;20.73;11.33;;;;;;;6.88;100.00;100510.34;5071946;28;20466;-48
2023/04/25 06:35:24;;;;;;;11.80;10.27;;;;;;;6.72;100.00;100504.38;5074268;28;20796;-46
2023/04/25 06:37:52;;;;;;;15.67;10.10;;;;;;;6.59;100.00;100499.66;5073835;28;20460;-46
2023/04/25 06:40:19;;;;;;;12.97;10.53;;;;;;;6.56;100.00;100502.66;5073935;28;20933;-45
2023/04/25 06:42:47;;;;;;;14.30;9.63;;;;;;;6.65;100.00;100501.59;5073172;28;20465;-47
2023/04/25 06:45:14;;;;;;;9.87;8.87;;;;;;;6.66;100.00;100503.22;5073736;28;20996;-49
2023/04/25 06:47:42;;;;;;;12.60;10.13;;;;;;;6.88;100.00;100504.22;5073570;28;20991;-46
2023/04/25 06:50:11;;;;;;;14.90;9.10;;;;;;;7.13;100.00;100505.66;5073925;28;20757;-48
2023/04/25 06:52:39;;;;;;;13.00;9.73;;;;;;;7.27;100.00;100504.03;5073030;28;20882;-47
2023/04/25 06:55:07;;;;;;;12.27;10.97;;;;;;;7.44;100.00;100513.47;5073705;28;20427;-45
2023/04/25 06:57:35;;;;;;;11.00;10.00;;;;;;;7.62;100.00;100504.16;5073478;28;20454;-44
2023/04/25 07:00:05;;;;;;;11.87;10.87;;;;;;;7.78;100.00;100514.59;5073398;28;20430;-47
2023/04/25 07:02:32;;;;;;;13.80;11.33;;;;;;;7.77;100.00;100499.66;5069652;28;20466;-46
2023/04/25 07:05:00;;;;;;;13.80;9.90;;;;;;;7.80;100.00;100506.44;5073425;28;20474;-45
2023/04/25 07:07:30;;;;;;;11.90;10.70;;;;;;;7.58;100.00;100510.03;5073290;28;20446;-44
2023/04/25 07:09:57;;;;;;;11.37;9.10;;;;;;;7.40;100.00;100509.56;5073100;28;20492;-46
2023/04/25 07:12:25;;;;;;;11.13;9.53;;;;;;;7.49;100.00;100516.44;5072579;28;20458;-44
2023/04/25 07:14:52;;;;;;;19.83;10.30;;;;;;;7.62;100.00;100517.44;5072996;28;20436;-47
2023/04/25 07:17:20;;;;;;;12.37;8.77;;;;;;;7.38;100.00;100517.69;5072995;28;20960;-44
2023/04/25 07:19:48;;;;;;;11.93;8.03;;;;;;;7.14;100.00;100500.16;5073221;28;20467;-45
2023/04/25 07:22:15;;;;;;;12.00;9.93;;;;;;;7.42;100.00;100508.34;5067849;28;20832;-46
2023/04/25 07:24:48;;;;;;;12.83;9.40;;;;;;;7.77;100.00;100510.28;5073078;28;20433;-45
2023/04/25 07:27:16;;;;;;;12.63;9.60;;;;;;;7.94;100.00;100518.91;5072869;28;20541;-44
2023/04/25 07:29:43;;;;;;;13.13;9.90;;;;;;;7.94;100.00;100523.38;5073078;28;20438;-46
2023/04/25 07:32:13;;;;;;;19.57;10.00;;;;;;;7.90;100.00;100516.78;5068598;28;21052;-48
2023/04/25 07:34:41;;;;;;;12.97;9.20;;;;;;;8.13;100.00;100523.63;5072741;28;20436;-48
2023/04/25 07:37:09;;;;;;;10.17;9.17;;;;;;;7.94;100.00;100524.22;5072909;28;20447;-47
2023/04/25 07:39:36;;;;;;;13.80;8.60;;;;;;;8.04;100.00;100529.22;5073192;28;20426;-49
2023/04/25 07:42:07;;;;;;;21.20;9.30;;;;;;;8.18;100.00;100526.53;5072125;28;20845;-51
2023/04/25 07:44:38;;;;;;;14.33;8.93;;;;;;;8.34;97.34;100513.06;5072707;28;20426;-48
2023/04/25 07:47:07;;;;;;;16.10;8.90;;;;;;;8.49;100.00;100523.66;5072706;28;20535;-51
2023/04/25 07:49:35;;;;;;;12.83;8.80;;;;;;;8.69;99.08;100529.97;5072798;28;20434;-51
2023/04/25 07:52:05;;;;;;;12.10;8.30;;;;;;;8.99;93.57;100530.66;5071886;28;20422;-47
2023/04/25 07:54:33;;;;;;;11.03;7.77;;;;;;;8.89;92.88;100535.50;5072354;28;20534;-49
2023/04/25 07:57:01;;;;;;;18.07;8.30;;;;;;;9.01;94.03;100539.31;5072532;28;20537;-51
2023/04/25 07:59:30;;;;;;;14.77;8.70;;;;;;;8.81;95.57;100544.41;5072015;28;20434;-49
2023/04/25 08:01:58;;;;;;;12.70;7.87;;;;;;;8.64;91.95;100547.50;5069378;28;20437;-53
2023/04/25 08:04:26;;;;;;;11.47;8.40;;;;;;;8.30;93.85;100553.50;5072522;28;20434;-52
2023/04/25 08:06:54;;;;;;;14.20;8.10;;;;;;;8.25;99.19;100546.03;5072083;28;20504;-48
2023/04/25 08:09:22;;;;;;;12.40;7.03;;;;;;;7.96;100.00;100563.84;5072240;28;20965;-47
2023/04/25 08:11:50;;;;;;;7.63;7.07;;;;;;;7.52;100.00;100574.44;5071947;28;20426;-51
2023/04/25 08:14:17;;;;;;;14.40;7.93;;;;;;;7.29;100.00;100563.84;5072307;28;20469;-48
2023/04/25 08:16:47;;;;;;;18.57;8.40;;;;;;;7.46;100.00;100586.59;5072196;28;20452;-47
2023/04/25 08:19:14;;;;;;;9.50;6.40;;;;;;;7.63;100.00;100588.09;5072125;28;20437;-46
2023/04/25 08:21:42;;;;;;;13.17;7.67;;;;;;;7.54;100.00;100602.44;5071654;28;20738;-52
2023/04/25 08:24:10;;;;;;;14.50;7.83;;;;;;;7.23;100.00;100613.13;5071507;28;20878;-51
2023/04/25 08:26:39;;;;;;;11.13;8.17;;;;;;;7.12;100.00;100613.56;5071876;28;20486;-46
2023/04/25 08:29:06;;;;;;;11.37;9.00;;;;;;;6.95;100.00;100627.94;5071973;28;20430;-46
2023/04/25 08:31:34;;;;;;;11.67;8.83;;;;;;;6.91;100.00;100615.19;5071867;28;20437;-51
2023/04/25 08:34:03;;;;;;;15.03;7.83;;;;;;;7.35;100.00;100613.53;5067856;28;20491;-49
2023/04/25 08:36:31;;;;;;;12.00;8.13;;;;;;;7.83;100.00;100612.25;5072189;28;20906;-51
2023/04/25 08:39:06;;;;;;;15.03;8.33;;;;;;;8.22;100.00;100612.81;5071854;28;20533;-51
2023/04/25 08:41:37;;;;;;;10.73;8.53;;;;;;;8.57;100.00;100621.84;5071634;28;20859;-51
2023/04/25 08:44:06;;;;;;;13.53;8.43;;;;;;;8.72;100.00;100619.19;5071312;28;20458;-50
2023/04/25 08:46:34;;;;;;;12.20;8.83;;;;;;;9.05;100.00;100617.69;5071402;28;20996;-47
2023/04/25 08:49:03;;;;;;;14.13;8.00;;;;;;;8.74;100.00;100615.34;5072025;28;20434;-49
2023/04/25 08:51:33;;;;;;;13.53;7.17;;;;;;;9.02;100.00;100615.41;5071383;28;20425;-48
2023/04/25 08:54:10;;;;;;;14.40;7.60;;;;;;;9.12;100.00;100615.94;5066967;28;20549;-49
2023/04/25 08:56:58;;;;;;;10.33;7.63;;;;;;;9.24;100.00;100624.22;5071580;28;20446;-48
2023/04/25 08:59:27;;;;;;;9.30;6.10;;;;;;;8.69;100.00;100625.69;5071937;28;20792;-46
2023/04/25 09:01:56;;;;;;;9.73;7.03;;;;;;;8.77;100.00;100627.44;5071525;28;20422;-52
2023/04/25 09:04:26;;;;;;;7.60;6.83;;;;;;;8.62;100.00;100637.25;5065881;28;20520;-53
2023/04/25 09:06:53;;;;;;;14.90;7.73;;;;;;;8.71;100.00;100625.50;5071503;28;20942;-46
2023/04/25 09:09:21;;;;;;;8.37;7.57;;;;;;;8.82;100.00;100644.47;5071665;28;20902;-47
2023/04/25 09:11:49;;;;;;;13.27;8.70;;;;;;;8.94;100.00;100638.66;5073558;28;20874;-46
2023/04/25 09:14:20;;;;;;;13.27;8.20;;;;;;;9.09;100.00;100637.59;5075084;28;20498;-49
2023/04/25 09:17:04;;;;;;;14.90;7.90;;;;;;;9.22;100.00;100648.38;5075644;28;20524;-50
2023/04/25 09:19:36;;;;;;;12.27;9.27;;;;;;;9.10;100.00;100643.72;5075452;28;20444;-51
2023/04/25 09:22:09;;;;;;;15.00;7.23;;;;;;;9.30;100.00;100648.22;5075306;28;20433;-49
2023/04/25 09:24:38;;;;;;;14.47;7.30;;;;;;;9.08;100.00;100659.88;5074981;28;20562;-45
2023/04/25 09:27:07;;;;;;;14.67;7.83;;;;;;;8.75;100.00;100677.31;5075149;28;21006;-50
2023/04/25 09:29:37;;;;;;;16.27;7.23;;;;;;;8.72;100.00;100672.38;5075359;28;20819;-47
2023/04/25 09:32:13;;;;;;;10.43;7.77;;;;;;;8.58;100.00;100682.00;5074933;28;20434;-48
2023/04/25 09:34:44;;;;;;;11.97;8.60;;;;;;;8.54;100.00;100683.38;5072586;28;20461;-51
2023/04/25 09:37:12;;;;;;;7.23;6.73;;;;;;;8.70;100.00;100674.38;5075197;28;20439;-49
2023/04/25 09:39:40;;;;;;;10.97;6.47;;;;;;;8.96;100.00;100673.88;5075212;28;20426;-49
2023/04/25 09:42:10;;;;;;;8.30;6.87;;;;;;;9.23;100.00;100681.94;5074944;28;20438;-51
2023/04/25 09:44:37;;;;;;;8.37;7.53;;;;;;;9.66;100.00;100672.09;5074418;28;20458;-51
2023/04/25 09:47:10;;;;;;;7.77;7.37;;;;;;;10.16;100.00;100665.72;5074645;28;20473;-47
2023/04/25 09:49:41;;;;;;;10.93;8.03;;;;;;;10.87;100.00;100666.31;5075083;28;20903;-51
2023/04/25 09:52:13;;;;;;;19.63;8.33;;;;;;;10.76;100.00;100670.34;5074687;28;20524;-49
2023/04/25 09:54:41;;;;;;;10.93;8.30;;;;;;;10.76;100.00;100664.19;5074341;28;20454;-49
2023/04/25 09:57:12;;;;;;;9.03;7.33;;;;;;;10.13;100.00;100668.78;5074744;28;20446;-51
2023/04/25 09:59:44;;;;;;;15.63;7.27;;;;;;;9.73;100.00;100664.19;5075169;28;20962;-46
2023/04/25 10:02:13;;;;;;;10.50;7.50;;;;;;;9.51;100.00;100679.34;5074490;28;20426;-48
2023/04/25 10:04:42;;;;;;;15.50;8.27;;;;;;;9.56;100.00;100670.78;5071299;28;20556;-51
2023/04/25 10:07:12;;;;;;;16.00;7.67;;;;;;;9.78;100.00;100675.88;5074476;28;20485;-52
2023/04/25 10:09:41;;;;;;;13.83;8.13;;;;;;;9.98;100.00;100676.03;5074676;28;20445;-46
2023/04/25 10:12:08;;;;;;;11.10;8.00;;;;;;;10.17;100.00;100680.72;5074244;28;21051;-49
2023/04/25 10:14:36;;;;;;;11.90;9.20;;;;;;;10.85;100.00;100674.50;5074017;28;20458;-48
2023/04/25 10:17:04;;;;;;;9.50;7.93;;;;;;;10.70;100.00;100667.66;5074375;28;20442;-51
2023/04/25 10:19:32;;;;;;;15.20;8.60;;;;;;;10.94;100.00;100677.78;5074631;28;20434;-48
2023/04/25 10:22:08;;;;;;;15.43;7.87;;;;;;;11.09;100.00;100671.28;5074176;28;20768;-48
2023/04/25 10:24:39;;;;;;;18.33;6.67;;;;;;;11.27;100.00;100684.06;5063813;28;20454;-49
2023/04/25 10:27:08;;;;;;;8.60;6.97;;;;;;;11.28;100.00;100675.03;5074462;28;20479;-54
2023/04/25 10:29:36;;;;;;;9.77;6.77;;;;;;;10.84;99.09;100696.84;5074520;28;20456;-48
2023/04/25 10:32:04;;;;;;;10.37;7.00;;;;;;;8.98;100.00;100747.16;5074002;28;20484;-52
2023/04/25 10:34:43;;;;;;;7.13;6.63;;;;;;;7.49;100.00;100740.13;5068567;28;20656;-49
2023/04/25 10:37:11;;;;;;;15.20;8.57;;;;;;;7.57;100.00;100734.75;5077135;28;20446;-47
2023/04/25 10:39:42;;;;;;;10.63;8.47;;;;;;;8.01;100.00;100742.03;5078160;28;20502;-46
2023/04/25 10:42:09;;;;;;;8.30;7.60;;;;;;;8.61;100.00;100744.59;5077656;28;20454;-48
2023/04/25 10:44:38;;;;;;;10.47;9.10;;;;;;;9.07;100.00;100738.03;5073527;28;20458;-48
2023/04/25 10:47:09;;;;;;;11.73;8.63;;;;;;;9.33;100.00;100735.69;5073858;28;20569;-49
2023/04/25 10:49:39;;;;;;;10.13;7.70;;;;;;;10.04;100.00;100739.19;5074139;28;20521;-50
2023/04/25 10:52:18;;;;;;;11.73;8.70;;;;;;;10.22;100.00;100728.09;5073787;28;20438;-51
2023/04/25 10:54:53;;;;;;;12.40;8.40;;;;;;;10.45;100.00;100723.34;5073506;28;21015;-49
2023/04/25 10:57:31;;;;;;;20.13;8.27;;;;;;;10.61;100.00;100715.00;5073689;28;20536;-47
2023/04/25 11:00:00;;;;;;;8.73;7.77;;;;;;;10.83;100.00;100708.56;5073618;28;21011;-49
2023/04/25 11:02:29;;;;;;;10.03;8.17;;;;;;;11.08;100.00;100707.00;5073444;28;20430;-50
2023/04/25 11:04:57;;;;;;;9.10;7.40;;;;;;;11.05;100.00;100702.06;5071341;28;20463;-52
2023/04/25 11:07:34;;;;;;;11.37;7.43;;;;;;;10.30;100.00;100720.78;5073451;28;20474;-48
2023/04/25 11:10:05;;;;;;;12.60;7.30;;;;;;;10.23;100.00;100727.06;5073379;28;20954;-49
2023/04/25 11:12:33;;;;;;;10.10;7.07;;;;;;;8.96;100.00;100789.03;5073035;28;20442;-50
2023/04/25 11:15:02;;;;;;;9.50;7.40;;;;;;;7.46;100.00;100792.72;5073082;28;20519;-49
2023/04/25 11:17:30;;;;;;;9.70;7.67;;;;;;;6.93;100.00;100785.53;5073280;28;20621;-48